Time;durP1;ratioP1;P1;durP2;ratioP2;P2;SDS_P1;SDS_P2;PMS_P1;PMS_P2;Temp;Humidity;BMP_temperature;BMP_pressure;BME280_temperature;BME280_humidity;BME280_pressure;Samples;Min_cycle;Max_cycle;Signal;HPM_P1;HPM_P2
2022/09/22 00:01:03;;;;;;;4.15;2.10;;;13.00;54.90;;;;;;4976353;28;20061;-57
2022/09/22 00:03:31;;;;;;;3.72;2.00;;;13.00;55.00;;;;;;4978516;28;20049;-57
2022/09/22 00:06:02;;;;;;;3.97;2.00;;;13.00;55.00;;;;;;4981126;28;20065;-54
2022/09/22 00:08:31;;;;;;;4.60;2.13;;;13.00;55.10;;;;;;4980733;28;20055;-57
2022/09/22 00:11:00;;;;;;;3.10;2.15;;;13.00;55.10;;;;;;4981042;28;20058;-57
2022/09/22 00:13:27;;;;;;;3.47;2.10;;;13.00;55.10;;;;;;4981196;28;20050;-56
2022/09/22 00:15:54;;;;;;;3.60;2.20;;;12.90;55.10;;;;;;4980239;28;20525;-57
2022/09/22 00:18:21;;;;;;;7.68;2.25;;;12.90;55.20;;;;;;4984687;28;20441;-58
2022/09/22 00:20:49;;;;;;;3.83;2.10;;;12.90;55.20;;;;;;4985946;28;21571;-57
2022/09/22 00:23:17;;;;;;;4.82;2.30;;;12.90;55.20;;;;;;4985797;28;20062;-56
2022/09/22 00:25:44;;;;;;;3.42;1.80;;;12.90;55.20;;;;;;4983203;28;20083;-57
2022/09/22 00:28:12;;;;;;;4.10;2.13;;;12.90;55.20;;;;;;4983982;28;20054;-57
2022/09/22 00:30:42;;;;;;;3.88;1.90;;;12.80;55.10;;;;;;4985354;28;20050;-56
2022/09/22 00:33:10;;;;;;;3.42;2.05;;;12.80;55.10;;;;;;4985778;28;20051;-58
2022/09/22 00:35:37;;;;;;;3.90;2.10;;;12.80;55.20;;;;;;4983426;28;20053;-57
2022/09/22 00:38:06;;;;;;;7.05;2.78;;;12.80;55.10;;;;;;4985674;28;20061;-57
2022/09/22 00:40:36;;;;;;;3.40;2.00;;;12.70;55.10;;;;;;4983694;28;20465;-57
2022/09/22 00:43:14;;;;;;;3.85;1.90;;;12.70;55.20;;;;;;4983790;28;20054;-56
2022/09/22 00:45:42;;;;;;;2.15;1.63;;;12.70;55.20;;;;;;4981625;28;20062;-57
2022/09/22 00:48:10;;;;;;;4.88;2.17;;;12.70;55.20;;;;;;4985069;28;20063;-51
2022/09/22 00:50:38;;;;;;;4.18;2.00;;;12.70;55.30;;;;;;4987309;28;20055;-57
2022/09/22 00:53:09;;;;;;;4.15;1.90;;;12.70;55.30;;;;;;4985462;28;20062;-57
2022/09/22 00:55:45;;;;;;;2.97;1.83;;;12.70;55.30;;;;;;4980905;28;20050;-57
2022/09/22 00:58:16;;;;;;;2.85;1.73;;;12.60;55.30;;;;;;4984402;28;20058;-57
2022/09/22 01:00:44;;;;;;;2.95;1.40;;;12.70;55.40;;;;;;4982648;28;20054;-57
2022/09/22 01:03:15;;;;;;;3.53;1.85;;;12.60;55.40;;;;;;4983901;28;20050;-56
2022/09/22 01:05:47;;;;;;;5.10;1.80;;;12.70;55.50;;;;;;4985271;28;20054;-57
2022/09/22 01:08:15;;;;;;;4.90;2.00;;;12.60;55.30;;;;;;4985671;28;20058;-57
2022/09/22 01:10:44;;;;;;;4.13;1.88;;;12.60;55.30;;;;;;4984256;28;20574;-58
2022/09/22 01:13:24;;;;;;;2.22;1.80;;;12.60;55.30;;;;;;4979961;28;20497;-55
2022/09/22 01:16:04;;;;;;;4.32;1.98;;;12.60;55.30;;;;;;4977636;28;20491;-57
2022/09/22 01:18:46;;;;;;;3.83;1.60;;;12.60;55.30;;;;;;4984267;28;20073;-58
2022/09/22 01:21:34;;;;;;;6.85;1.95;;;12.60;55.30;;;;;;4980598;28;20057;-57
2022/09/22 01:24:41;;;;;;;4.47;2.10;;;12.50;55.30;;;;;;4985584;28;20063;-57
2022/09/22 01:27:48;;;;;;;2.72;1.80;;;12.50;55.30;;;;;;4982758;28;20138;-51
2022/09/22 01:30:23;;;;;;;3.70;1.90;;;12.50;55.30;;;;;;4982168;28;20410;-54
2022/09/22 01:33:21;;;;;;;4.38;2.10;;;12.50;55.30;;;;;;4985033;28;20069;-58
2022/09/22 01:36:13;;;;;;;3.45;2.00;;;12.50;55.30;;;;;;4982373;28;20058;-52
2022/09/22 01:38:48;;;;;;;7.22;3.35;;;12.50;55.30;;;;;;4977923;28;20069;-58
2022/09/22 01:41:17;;;;;;;;;;;12.50;55.30;;;;;;4982940;28;20061;-58
2022/09/22 01:43:51;;;;;;;4.47;2.28;;;12.50;55.30;;;;;;4982481;28;19933;-57
2022/09/22 01:46:25;;;;;;;2.63;1.85;;;12.50;55.10;;;;;;4981970;28;20050;-57
2022/09/22 01:48:54;;;;;;;3.85;1.88;;;12.50;55.10;;;;;;4983002;28;20057;-56
2022/09/22 01:51:26;;;;;;;4.82;1.90;;;12.40;55.10;;;;;;4983935;28;20451;-58
2022/09/22 01:53:59;;;;;;;3.53;2.10;;;12.40;55.00;;;;;;4983310;28;20050;-57
2022/09/22 01:56:29;;;;;;;3.00;1.75;;;12.40;55.10;;;;;;4979632;28;20065;-56
2022/09/22 01:59:00;;;;;;;5.82;2.28;;;12.30;55.10;;;;;;4981321;28;20065;-58
2022/09/22 02:01:34;;;;;;;3.28;1.90;;;12.30;55.20;;;;;;4982730;28;20050;-57
2022/09/22 02:04:07;;;;;;;4.00;1.90;;;12.30;55.30;;;;;;4983378;28;20517;-57
2022/09/22 02:06:40;;;;;;;3.72;1.70;;;12.30;55.20;;;;;;4982213;28;20500;-57
2022/09/22 02:09:10;;;;;;;2.88;1.67;;;12.20;55.30;;;;;;4983870;28;20482;-58
2022/09/22 02:11:38;;;;;;;3.60;1.80;;;12.20;55.30;;;;;;4984033;28;20058;-58
2022/09/22 02:14:06;;;;;;;2.97;2.00;;;12.20;55.30;;;;;;4981983;28;20061;-57
2022/09/22 02:16:36;;;;;;;2.45;1.63;;;12.20;55.40;;;;;;4979976;28;20076;-54
2022/09/22 02:19:09;;;;;;;4.68;2.38;;;12.20;55.50;;;;;;4983060;28;20055;-53
2022/09/22 02:21:36;;;;;;;4.95;1.98;;;12.10;55.30;;;;;;4982056;28;20065;-54
2022/09/22 02:24:03;;;;;;;2.20;1.52;;;12.10;55.30;;;;;;4984262;28;20057;-48
2022/09/22 02:26:35;;;;;;;3.53;1.77;;;12.10;55.40;;;;;;4983207;28;20058;-49
2022/09/22 02:29:06;;;;;;;6.95;2.00;;;12.10;55.40;;;;;;4979914;28;20069;-46
2022/09/22 02:31:37;;;;;;;4.25;1.90;;;12.10;55.40;;;;;;4982619;28;20054;-49
2022/09/22 02:34:07;;;;;;;2.95;1.95;;;12.10;55.40;;;;;;4984314;28;20061;-44
2022/09/22 02:36:44;;;;;;;4.35;1.77;;;12.10;55.40;;;;;;4982267;28;20055;-48
2022/09/22 02:39:18;;;;;;;2.88;1.50;;;12.00;55.40;;;;;;4981757;28;20070;-47
2022/09/22 02:42:02;;;;;;;3.37;1.53;;;12.00;55.40;;;;;;4982153;28;20069;-44
2022/09/22 02:44:34;;;;;;;3.15;1.92;;;12.00;55.40;;;;;;4983158;28;20057;-46
2022/09/22 02:47:09;;;;;;;3.58;1.85;;;12.00;55.40;;;;;;4980684;28;20058;-48
2022/09/22 02:49:37;;;;;;;4.57;2.10;;;12.00;55.40;;;;;;4983188;28;20069;-45
2022/09/22 02:52:10;;;;;;;3.75;1.95;;;12.00;55.50;;;;;;4981128;28;20509;-44
2022/09/22 02:54:38;;;;;;;3.15;1.83;;;11.90;55.40;;;;;;4983218;28;20054;-51
2022/09/22 02:57:05;;;;;;;6.13;1.83;;;11.90;55.50;;;;;;4980479;28;20395;-55
2022/09/22 02:59:32;;;;;;;2.38;1.80;;;11.90;55.50;;;;;;4980986;28;20069;-55
2022/09/22 03:01:59;;;;;;;2.65;1.77;;;11.90;55.50;;;;;;4977583;28;20058;-56
2022/09/22 03:04:28;;;;;;;4.68;2.45;;;11.90;55.50;;;;;;4982762;28;20069;-52
2022/09/22 03:06:55;;;;;;;2.45;1.70;;;11.90;55.60;;;;;;4978978;28;20050;-58
2022/09/22 03:09:22;;;;;;;3.88;1.80;;;11.90;55.50;;;;;;4978858;28;20046;-58
2022/09/22 03:11:49;;;;;;;5.22;1.92;;;11.80;55.50;;;;;;4977331;28;21095;-57
2022/09/22 03:14:17;;;;;;;2.13;1.70;;;11.80;55.40;;;;;;4978870;28;20540;-57
2022/09/22 03:16:44;;;;;;;3.20;1.73;;;11.80;55.40;;;;;;4982429;28;20054;-58
2022/09/22 03:19:11;;;;;;;3.38;2.00;;;11.70;55.40;;;;;;4983683;28;20860;-57
2022/09/22 03:21:39;;;;;;;3.20;1.67;;;11.70;55.50;;;;;;4981195;28;20054;-57
2022/09/22 03:24:07;;;;;;;3.33;1.90;;;11.70;55.50;;;;;;4983630;28;20073;-55
2022/09/22 03:26:34;;;;;;;4.07;1.80;;;11.70;55.40;;;;;;4981032;28;20054;-57
2022/09/22 03:29:01;;;;;;;3.47;1.95;;;11.70;55.40;;;;;;4979338;28;20054;-57
2022/09/22 03:31:29;;;;;;;3.78;2.30;;;11.70;55.40;;;;;;4979122;28;20395;-57
2022/09/22 03:33:56;;;;;;;3.92;2.03;;;11.60;55.40;;;;;;4979915;28;20430;-57
2022/09/22 03:36:23;;;;;;;4.22;2.03;;;11.60;55.40;;;;;;4980314;28;20050;-52
2022/09/22 03:38:51;;;;;;;3.47;1.67;;;11.60;55.50;;;;;;4980390;28;20054;-58
2022/09/22 03:41:19;;;;;;;4.82;2.08;;;11.60;55.50;;;;;;4981929;28;20494;-58
2022/09/22 03:43:46;;;;;;;2.70;1.58;;;11.60;55.50;;;;;;4977773;28;20054;-52
2022/09/22 03:46:13;;;;;;;2.35;1.77;;;11.50;55.50;;;;;;4981461;28;20054;-52
2022/09/22 03:48:41;;;;;;;4.82;1.67;;;11.50;55.50;;;;;;4976481;28;20062;-54
2022/09/22 03:51:08;;;;;;;3.10;1.83;;;11.50;55.50;;;;;;4979770;28;20058;-54
2022/09/22 03:53:35;;;;;;;3.35;1.83;;;11.50;55.50;;;;;;4987117;28;20780;-56
2022/09/22 03:56:08;;;;;;;3.50;1.67;;;11.50;55.60;;;;;;4985495;28;20053;-57
2022/09/22 03:58:36;;;;;;;3.08;1.63;;;11.50;55.60;;;;;;4986805;28;20058;-55
2022/09/22 04:01:04;;;;;;;2.30;1.70;;;11.40;55.60;;;;;;4985636;28;20407;-57
2022/09/22 04:03:31;;;;;;;5.53;1.80;;;11.40;55.70;;;;;;4985326;28;20494;-57
2022/09/22 04:05:59;;;;;;;3.63;1.73;;;11.40;55.70;;;;;;4980277;28;20061;-57
2022/09/22 04:08:26;;;;;;;2.88;1.75;;;11.40;55.70;;;;;;4987228;28;20545;-57
2022/09/22 04:10:54;;;;;;;2.92;1.73;;;11.40;55.80;;;;;;4987400;28;20502;-56
2022/09/22 04:13:22;;;;;;;3.03;1.70;;;11.40;55.80;;;;;;4986231;28;20054;-53
2022/09/22 04:15:49;;;;;;;3.97;1.70;;;11.40;55.90;;;;;;4981147;28;20057;-57
2022/09/22 04:18:17;;;;;;;3.45;1.75;;;11.30;55.80;;;;;;4980432;28;20055;-57
2022/09/22 04:20:44;;;;;;;3.28;1.92;;;11.30;55.90;;;;;;4984483;28;20054;-57
2022/09/22 04:23:12;;;;;;;3.22;1.88;;;11.30;55.90;;;;;;4983345;28;20617;-57
2022/09/22 04:25:39;;;;;;;3.42;1.73;;;11.30;55.90;;;;;;4981873;28;20065;-58
2022/09/22 04:28:07;;;;;;;5.90;1.80;;;11.30;55.90;;;;;;4985596;28;20046;-52
2022/09/22 04:30:36;;;;;;;3.03;1.83;;;11.30;55.90;;;;;;4983207;28;20491;-56
2022/09/22 04:33:04;;;;;;;3.72;1.73;;;11.30;55.90;;;;;;4984058;28;20422;-57
2022/09/22 04:35:32;;;;;;;4.78;1.95;;;11.20;55.90;;;;;;4986058;28;20051;-56
2022/09/22 04:37:59;;;;;;;4.45;1.50;;;11.30;56.00;;;;;;4986335;28;20058;-57
2022/09/22 04:40:26;;;;;;;4.68;1.75;;;11.30;56.00;;;;;;4985102;28;22860;-54
2022/09/22 04:42:53;;;;;;;5.47;2.00;;;11.20;56.00;;;;;;4984109;28;20057;-56
2022/09/22 04:45:21;;;;;;;3.40;2.20;;;11.20;56.00;;;;;;4983789;28;20049;-57
2022/09/22 04:47:50;;;;;;;3.58;2.03;;;11.20;56.00;;;;;;4982109;28;20058;-57
2022/09/22 04:50:19;;;;;;;4.85;1.80;;;11.20;56.00;;;;;;4984919;28;20054;-57
2022/09/22 04:52:48;;;;;;;3.90;1.98;;;11.20;56.10;;;;;;4986111;28;20392;-57
2022/09/22 04:55:16;;;;;;;3.47;1.88;;;11.20;56.10;;;;;;4983669;28;20057;-56
2022/09/22 04:57:47;;;;;;;5.05;2.15;;;11.20;56.20;;;;;;4985375;28;20058;-57
2022/09/22 05:00:15;;;;;;;6.32;2.90;;;11.10;56.20;;;;;;4981206;28;20062;-55
2022/09/22 05:02:42;;;;;;;4.63;2.42;;;11.20;56.20;;;;;;4984408;28;20177;-53
2022/09/22 05:05:11;;;;;;;4.80;2.22;;;11.10;56.20;;;;;;4983632;28;20058;-55
2022/09/22 05:07:42;;;;;;;4.07;2.15;;;11.10;56.70;;;;;;4985371;28;20058;-56
2022/09/22 05:10:10;;;;;;;3.08;2.00;;;11.10;56.30;;;;;;4986034;28;20050;-56
2022/09/22 05:12:39;;;;;;;3.08;1.65;;;11.10;56.30;;;;;;4979319;28;20070;-58
2022/09/22 05:15:08;;;;;;;3.45;1.85;;;11.10;56.30;;;;;;4971203;28;20407;-56
2022/09/22 05:17:36;;;;;;;2.65;1.85;;;11.10;56.30;;;;;;4972063;28;20534;-57
2022/09/22 05:20:04;;;;;;;3.35;1.73;;;11.10;56.30;;;;;;4979913;28;20058;-55
2022/09/22 05:22:32;;;;;;;3.75;1.85;;;11.10;56.30;;;;;;4983455;28;20046;-57
2022/09/22 05:25:00;;;;;;;2.60;1.75;;;11.10;56.30;;;;;;4983793;28;20062;-57
2022/09/22 05:27:27;;;;;;;3.65;2.17;;;11.10;56.30;;;;;;4981536;28;20054;-57
2022/09/22 05:29:54;;;;;;;3.70;1.95;;;11.10;56.40;;;;;;4982141;28;20054;-57
2022/09/22 05:32:21;;;;;;;2.33;1.60;;;11.00;56.40;;;;;;4982533;28;20063;-57
2022/09/22 05:34:48;;;;;;;3.33;2.03;;;11.10;56.60;;;;;;4984003;28;20058;-56
2022/09/22 05:37:15;;;;;;;3.35;2.00;;;11.10;56.50;;;;;;4981180;28;20057;-57
2022/09/22 05:39:44;;;;;;;6.35;2.13;;;11.00;56.40;;;;;;4981621;28;20490;-58
2022/09/22 05:42:11;;;;;;;3.22;1.67;;;11.00;56.40;;;;;;4983122;28;20375;-58
2022/09/22 05:44:38;;;;;;;3.72;1.70;;;11.00;56.40;;;;;;4984130;28;20054;-57
2022/09/22 05:47:05;;;;;;;5.43;1.80;;;11.10;56.40;;;;;;4980047;28;20050;-57
2022/09/22 05:49:33;;;;;;;3.80;2.17;;;11.00;56.40;;;;;;4983320;28;20058;-57
2022/09/22 05:52:00;;;;;;;4.28;1.83;;;11.00;56.50;;;;;;4983353;28;20058;-58
2022/09/22 05:54:27;;;;;;;2.13;1.83;;;11.00;56.60;;;;;;4983182;28;20081;-58
2022/09/22 05:56:57;;;;;;;3.60;2.15;;;11.00;56.60;;;;;;4983398;28;20058;-53
2022/09/22 05:59:24;;;;;;;4.03;2.30;;;11.00;56.70;;;;;;4981743;28;20050;-57
2022/09/22 06:01:51;;;;;;;4.55;1.70;;;11.00;56.80;;;;;;4980467;28;20053;-57
2022/09/22 06:04:18;;;;;;;5.43;2.00;;;11.00;56.80;;;;;;4983750;28;20057;-57
2022/09/22 06:06:46;;;;;;;3.63;2.15;;;11.00;56.90;;;;;;4980327;28;20050;-57
2022/09/22 06:09:13;;;;;;;4.20;1.52;;;11.00;56.90;;;;;;4983842;28;20058;-57
2022/09/22 06:11:40;;;;;;;4.47;2.40;;;11.00;57.00;;;;;;4981164;28;20054;-57
2022/09/22 06:14:09;;;;;;;2.50;1.95;;;11.00;57.00;;;;;;4981446;28;20593;-57
2022/09/22 06:16:36;;;;;;;4.25;2.17;;;11.10;57.20;;;;;;4977939;28;20050;-54
2022/09/22 06:19:04;;;;;;;4.40;1.85;;;11.10;57.30;;;;;;4981065;28;20078;-53
2022/09/22 06:21:32;;;;;;;5.43;2.08;;;11.10;57.30;;;;;;4981164;28;20061;-56
2022/09/22 06:23:59;;;;;;;3.08;1.95;;;11.10;57.40;;;;;;4984518;28;20061;-57
2022/09/22 06:26:26;;;;;;;3.35;1.88;;;11.10;57.40;;;;;;4983586;28;20065;-57
2022/09/22 06:28:53;;;;;;;5.63;2.28;;;11.20;57.50;;;;;;4982814;28;20058;-58
2022/09/22 06:31:22;;;;;;;2.92;1.85;;;11.20;57.60;;;;;;4982681;28;20073;-58
2022/09/22 06:33:49;;;;;;;4.50;1.92;;;11.20;57.60;;;;;;4984577;28;20060;-56
2022/09/22 06:36:22;;;;;;;3.72;2.00;;;11.30;57.70;;;;;;4982571;28;20053;-54
2022/09/22 06:38:50;;;;;;;3.50;2.00;;;11.30;57.70;;;;;;4983607;28;20069;-55
2022/09/22 06:41:18;;;;;;;3.30;1.77;;;11.40;57.80;;;;;;4982690;28;20057;-57
2022/09/22 06:43:47;;;;;;;2.78;1.95;;;11.40;57.90;;;;;;4982714;28;20054;-57
2022/09/22 06:46:17;;;;;;;3.03;1.77;;;11.40;57.90;;;;;;4980837;28;20517;-57
2022/09/22 06:48:49;;;;;;;4.05;2.00;;;11.50;57.90;;;;;;4982275;28;20050;-53
2022/09/22 06:51:16;;;;;;;3.20;1.70;;;11.50;58.00;;;;;;4983277;28;20049;-57
2022/09/22 06:53:46;;;;;;;3.65;2.20;;;11.50;57.90;;;;;;4982503;28;20414;-57
2022/09/22 06:56:13;;;;;;;3.70;1.60;;;11.60;58.00;;;;;;4983948;28;20054;-57
2022/09/22 06:58:43;;;;;;;4.65;2.20;;;11.60;58.00;;;;;;4980346;28;20069;-57
2022/09/22 07:01:10;;;;;;;4.35;1.83;;;11.70;58.00;;;;;;4983224;28;20065;-57
2022/09/22 07:03:41;;;;;;;3.10;1.90;;;11.70;58.10;;;;;;4981104;28;20057;-56
2022/09/22 07:06:15;;;;;;;3.33;2.10;;;11.80;58.10;;;;;;4983377;28;20054;-56
2022/09/22 07:08:43;;;;;;;4.13;1.83;;;11.90;58.10;;;;;;4983308;28;20054;-57
2022/09/22 07:11:11;;;;;;;3.17;1.85;;;11.90;58.10;;;;;;4984068;28;20065;-56
2022/09/22 07:13:40;;;;;;;3.58;2.10;;;12.00;58.20;;;;;;4983186;28;20069;-54
2022/09/22 07:16:09;;;;;;;5.07;1.80;;;12.00;58.20;;;;;;4983094;28;20057;-57
2022/09/22 07:18:40;;;;;;;3.53;2.08;;;12.10;58.30;;;;;;4983528;28;20062;-58
2022/09/22 07:21:08;;;;;;;3.03;2.00;;;12.10;58.20;;;;;;4983233;28;20054;-53
2022/09/22 07:23:37;;;;;;;3.47;1.88;;;12.20;58.20;;;;;;4982467;28;20080;-57
2022/09/22 07:26:05;;;;;;;3.60;2.13;;;12.20;58.20;;;;;;4978604;28;20054;-55
2022/09/22 07:28:34;;;;;;;4.07;1.95;;;12.30;58.20;;;;;;4980431;28;20054;-58
2022/09/22 07:31:05;;;;;;;5.30;2.17;;;12.30;58.20;;;;;;4981956;28;20781;-57
2022/09/22 07:33:33;;;;;;;4.57;2.00;;;12.40;58.20;;;;;;4982201;28;20062;-57
2022/09/22 07:36:07;;;;;;;3.53;2.25;;;12.40;58.20;;;;;;4978932;28;20050;-57
2022/09/22 07:38:35;;;;;;;4.63;1.80;;;12.50;58.20;;;;;;4981309;28;20050;-50
2022/09/22 07:41:05;;;;;;;3.63;2.10;;;12.50;58.20;;;;;;4981843;28;20061;-52
2022/09/22 07:43:33;;;;;;;6.68;2.60;;;12.60;58.30;;;;;;4981074;28;20054;-57
2022/09/22 07:46:00;;;;;;;8.13;2.38;;;12.60;58.20;;;;;;4980165;28;20062;-57
2022/09/22 07:51:15;;;;;;;6.18;2.22;;;12.70;58.70;;;;;;4981272;28;20062;-57
2022/09/22 07:53:42;;;;;;;4.63;2.03;;;12.80;58.20;;;;;;4977550;28;20054;-57
2022/09/22 07:56:13;;;;;;;4.03;1.77;;;12.90;58.10;;;;;;4974842;28;20537;-57
2022/09/22 07:58:47;;;;;;;2.60;1.95;;;12.90;58.10;;;;;;4977181;28;20050;-55
2022/09/22 08:01:14;;;;;;;4.38;1.90;;;13.00;58.10;;;;;;4978569;28;20061;-58
2022/09/22 08:03:42;;;;;;;6.85;2.22;;;13.00;58.20;;;;;;4977159;28;20683;-57
2022/09/22 08:06:10;;;;;;;6.53;2.20;;;13.10;58.20;;;;;;4979077;28;20513;-57
2022/09/22 08:08:39;;;;;;;4.13;1.95;;;13.10;58.00;;;;;;4975918;28;20542;-55
2022/09/22 08:11:07;;;;;;;2.78;1.75;;;13.20;58.10;;;;;;4972313;28;20414;-57
2022/09/22 08:13:36;;;;;;;3.08;1.92;;;13.30;58.10;;;;;;4975068;28;20070;-58
2022/09/22 08:16:04;;;;;;;2.28;1.60;;;13.30;58.00;;;;;;4979339;28;20414;-57
2022/09/22 08:18:32;;;;;;;5.15;1.92;;;13.40;58.10;;;;;;4976086;28;20525;-57
2022/09/22 08:21:00;;;;;;;4.55;1.90;;;13.40;58.10;;;;;;4979669;28;20054;-56
2022/09/22 08:23:30;;;;;;;4.57;1.65;;;13.50;58.10;;;;;;4981346;28;20054;-58
2022/09/22 08:25:58;;;;;;;3.20;1.75;;;13.60;58.10;;;;;;4980429;28;20090;-58
2022/09/22 08:28:25;;;;;;;4.18;2.00;;;13.60;58.00;;;;;;4981141;28;20061;-54
2022/09/22 08:30:54;;;;;;;3.55;2.42;;;13.70;58.00;;;;;;4979055;28;20050;-56
2022/09/22 08:33:21;;;;;;;4.22;2.03;;;13.70;58.00;;;;;;4981379;28;20055;-57
2022/09/22 08:35:52;;;;;;;4.63;1.50;;;13.80;58.00;;;;;;4977314;28;20057;-57
2022/09/22 08:38:21;;;;;;;3.50;1.50;;;13.80;58.10;;;;;;4982982;28;20065;-57
2022/09/22 08:41:07;;;;;;;2.88;1.67;;;13.90;58.20;;;;;;4981801;28;20517;-56
2022/09/22 08:43:35;;;;;;;5.10;1.90;;;14.00;58.30;;;;;;4983548;28;20054;-56
2022/09/22 08:46:04;;;;;;;3.50;1.65;;;14.10;58.40;;;;;;4980622;28;20422;-55
2022/09/22 08:54:09;;;;;;;3.10;1.63;;;14.30;58.20;;;;;;4990684;28;20402;-57
2022/09/22 08:56:41;;;;;;;3.05;1.60;;;14.40;58.10;;;;;;4984717;28;20069;-57
2022/09/22 08:59:14;;;;;;;2.83;1.60;;;14.40;58.00;;;;;;4980591;28;20054;-58
2022/09/22 09:02:02;;;;;;;5.40;1.77;;;14.50;57.90;;;;;;4983172;28;20406;-55
2022/09/22 09:04:56;;;;;;;3.92;2.10;;;14.60;57.80;;;;;;4981784;28;20074;-58
2022/09/22 09:07:33;;;;;;;4.47;1.90;;;14.70;57.60;;;;;;4983256;28;21047;-58
2022/09/22 09:10:07;;;;;;;3.70;1.88;;;14.80;57.50;;;;;;4984394;28;20050;-56
2022/09/22 09:12:47;;;;;;;3.03;1.80;;;14.90;57.60;;;;;;4983925;28;20061;-58
2022/09/22 09:15:29;;;;;;;3.03;1.35;;;14.90;57.60;;;;;;4982718;28;20062;-57
2022/09/22 09:18:01;;;;;;;3.10;1.45;;;15.00;58.10;;;;;;4982188;28;20055;-59
2022/09/22 09:20:35;;;;;;;3.58;1.77;;;15.10;57.80;;;;;;4978508;28;20046;-58
2022/09/22 09:23:04;;;;;;;;;;;15.10;57.70;;;;;;4986559;28;20057;-58
2022/09/22 09:25:35;;;;;;;2.88;1.35;;;15.30;57.70;;;;;;4982945;28;19925;-52
2022/09/22 09:28:06;;;;;;;5.10;1.52;;;15.40;57.40;;;;;;4985158;28;20406;-58
2022/09/22 09:30:41;;;;;;;3.53;1.70;;;15.40;57.20;;;;;;4979342;28;20050;-58
2022/09/22 09:33:21;;;;;;;3.70;1.70;;;15.50;56.90;;;;;;4977541;28;20522;-58
2022/09/22 09:35:51;;;;;;;3.33;1.35;;;15.50;56.70;;;;;;4980858;28;20058;-58
2022/09/22 09:38:25;;;;;;;2.28;1.33;;;15.60;56.70;;;;;;4984244;28;20057;-58
2022/09/22 09:40:59;;;;;;;2.10;1.10;;;15.70;56.50;;;;;;4980345;28;20485;-57
2022/09/22 09:43:29;;;;;;;2.65;1.17;;;15.80;56.40;;;;;;4983061;28;20406;-58
2022/09/22 09:46:10;;;;;;;4.78;1.25;;;15.80;56.20;;;;;;4979745;28;20062;-59
2022/09/22 09:48:50;;;;;;;9.43;1.70;;;15.90;55.70;;;;;;4985294;28;20057;-57
2022/09/22 09:51:18;;;;;;;2.97;1.20;;;16.00;55.60;;;;;;4984085;28;20069;-58
2022/09/22 09:53:47;;;;;;;3.55;1.60;;;16.00;55.40;;;;;;4982656;28;20057;-59
2022/09/22 09:56:23;;;;;;;1.88;1.00;;;16.10;55.20;;;;;;4980832;28;20062;-59
2022/09/22 10:01:45;;;;;;;1.55;0.93;;;16.20;54.70;;;;;;4988663;28;20073;-57
2022/09/22 10:04:31;;;;;;;3.85;1.33;;;16.30;54.50;;;;;;4983105;28;20077;-55
2022/09/22 10:07:13;;;;;;;2.65;1.10;;;16.30;54.00;;;;;;4979359;28;20058;-57
2022/09/22 10:09:41;;;;;;;1.92;1.17;;;16.40;53.70;;;;;;4983839;28;20047;-57
2022/09/22 10:12:28;;;;;;;2.55;1.08;;;16.50;53.60;;;;;;4982641;28;20080;-57
2022/09/22 10:14:57;;;;;;;3.08;1.00;;;16.50;53.10;;;;;;4980214;28;20073;-54
2022/09/22 10:17:28;;;;;;;2.42;1.00;;;16.60;53.20;;;;;;4984098;28;20054;-58
2022/09/22 10:20:19;;;;;;;1.85;0.90;;;16.70;52.90;;;;;;4981696;28;20058;-55
2022/09/22 10:22:46;;;;;;;2.72;1.10;;;16.70;52.30;;;;;;4978930;28;20054;-57
2022/09/22 10:25:22;;;;;;;2.25;1.17;;;16.80;52.40;;;;;;4981524;28;20450;-58
2022/09/22 10:28:01;;;;;;;3.35;1.10;;;16.90;52.00;;;;;;4979742;28;20058;-57
2022/09/22 10:30:36;;;;;;;2.30;1.20;;;16.90;51.80;;;;;;4981693;28;20422;-58
2022/09/22 10:33:13;;;;;;;1.65;0.98;;;17.00;51.80;;;;;;4980891;28;20065;-58
2022/09/22 10:35:43;;;;;;;2.30;1.27;;;17.00;51.00;;;;;;4981012;28;20077;-56
2022/09/22 10:38:16;;;;;;;1.40;1.00;;;17.10;51.20;;;;;;4983276;28;20050;-58
2022/09/22 10:40:47;;;;;;;1.45;0.90;;;17.10;51.00;;;;;;4981397;28;20406;-55
2022/09/22 10:43:30;;;;;;;1.73;1.13;;;17.10;51.00;;;;;;4981624;28;20054;-57
2022/09/22 10:46:17;;;;;;;2.13;1.15;;;17.20;51.00;;;;;;4977605;28;20054;-58
2022/09/22 10:48:48;;;;;;;1.45;1.00;;;17.30;50.60;;;;;;4982715;28;20061;-57
2022/09/22 10:51:30;;;;;;;1.42;1.00;;;17.30;50.00;;;;;;4985965;28;20054;-53
2022/09/22 10:54:19;;;;;;;2.30;1.25;;;17.40;50.00;;;;;;4984772;28;20058;-56
2022/09/22 10:56:52;;;;;;;2.00;0.95;;;17.40;49.70;;;;;;4987661;28;20050;-56
2022/09/22 11:03:30;;;;;;;1.42;0.95;;;17.50;49.30;;;;;;4986063;28;20045;-56
2022/09/22 11:14:58;;;;;;;53.45;4.75;;;17.70;49.20;;;;;;4975095;28;20057;-55
2022/09/22 11:17:51;;;;;;;2.50;1.55;;;17.70;49.30;;;;;;4984847;28;20058;-56
2022/09/22 11:20:31;;;;;;;4.55;1.38;;;17.80;49.30;;;;;;4984365;28;20046;-56
2022/09/22 11:23:11;;;;;;;2.75;1.40;;;17.80;49.20;;;;;;4990257;28;20058;-56
2022/09/22 11:26:01;;;;;;;2.67;1.13;;;17.90;49.20;;;;;;4986180;28;20062;-53
2022/09/22 11:28:42;;;;;;;1.85;0.90;;;17.90;48.80;;;;;;4987514;28;21075;-57
2022/09/22 11:31:17;;;;;;;1.92;0.70;;;18.00;48.30;;;;;;4988698;28;20054;-56
2022/09/22 11:34:12;;;;;;;2.85;0.82;;;18.00;48.30;;;;;;4985076;28;20058;-57
2022/09/22 11:36:44;;;;;;;;;;;18.10;48.20;;;;;;4978376;28;20057;-58
2022/09/22 11:39:28;;;;;;;1.98;1.00;;;18.10;48.70;;;;;;4987162;28;19932;-56
2022/09/22 11:42:07;;;;;;;2.75;1.02;;;18.10;48.20;;;;;;4984476;28;20050;-58
2022/09/22 11:44:40;;;;;;;2.65;0.95;;;18.20;48.10;;;;;;4986031;28;20502;-57
2022/09/22 11:47:57;;;;;;;2.13;1.00;;;18.20;48.40;;;;;;4984036;28;20065;-56
2022/09/22 11:50:37;;;;;;;1.40;0.98;;;18.20;47.90;;;;;;4909096;29;20515;-57
2022/09/22 11:53:28;;;;;;;5.03;1.23;;;18.20;47.90;;;;;;4971777;28;20391;-55
2022/09/22 11:56:15;;;;;;;1.88;0.80;;;18.30;47.60;;;;;;4986651;28;20050;-56
2022/09/22 11:58:45;;;;;;;3.65;1.00;;;18.40;47.50;;;;;;4986453;28;20050;-56
2022/09/22 12:01:18;;;;;;;1.80;0.90;;;18.40;47.50;;;;;;4986324;28;20510;-57
2022/09/22 12:03:49;;;;;;;1.55;0.90;;;18.50;47.50;;;;;;4992539;28;20077;-57
2022/09/22 12:06:19;;;;;;;2.92;1.20;;;18.50;47.10;;;;;;4988967;28;20134;-56
2022/09/22 12:08:53;;;;;;;1.33;0.98;;;18.60;46.90;;;;;;4983139;28;20387;-54
2022/09/22 12:11:22;;;;;;;1.77;1.15;;;18.60;46.60;;;;;;4988210;28;20062;-56
2022/09/22 12:13:53;;;;;;;3.08;0.80;;;18.70;46.50;;;;;;4989153;28;20061;-54
2022/09/22 12:16:25;;;;;;;1.70;0.88;;;18.70;46.30;;;;;;4992629;28;20054;-57
2022/09/22 12:18:57;;;;;;;3.88;0.90;;;18.70;46.40;;;;;;4997734;28;20065;-52
2022/09/22 12:21:47;;;;;;;1.00;0.70;;;18.80;46.20;;;;;;4996236;28;20058;-56
2022/09/22 12:24:14;;;;;;;1.25;0.80;;;18.80;45.90;;;;;;4997988;28;20050;-52
2022/09/22 12:26:44;;;;;;;1.40;0.80;;;18.80;46.20;;;;;;4998109;28;20050;-52
2022/09/22 12:29:24;;;;;;;7.65;0.90;;;18.90;45.90;;;;;;4993389;28;20065;-55
2022/09/22 12:31:54;;;;;;;1.30;0.98;;;18.90;45.30;;;;;;4994319;28;20426;-54
2022/09/22 12:34:24;;;;;;;3.65;0.95;;;18.90;45.10;;;;;;4992068;28;20050;-54
2022/09/22 12:36:54;;;;;;;1.75;0.80;;;19.00;45.30;;;;;;4990700;28;20065;-53
2022/09/22 12:39:23;;;;;;;1.25;0.82;;;19.00;45.30;;;;;;4994317;28;20046;-52
2022/09/22 12:41:57;;;;;;;0.63;0.63;;;19.00;45.10;;;;;;4993537;28;20054;-57
2022/09/22 12:44:29;;;;;;;0.60;0.60;;;19.10;45.00;;;;;;4994546;28;21099;-56
2022/09/22 12:47:01;;;;;;;1.30;0.60;;;19.10;44.90;;;;;;4994195;28;20058;-56
2022/09/22 12:49:28;;;;;;;4.50;0.85;;;19.10;44.40;;;;;;4997948;28;20046;-56
2022/09/22 12:51:56;;;;;;;2.95;1.15;;;19.10;44.30;;;;;;4994212;28;20058;-56
2022/09/22 12:54:37;;;;;;;1.83;0.90;;;19.20;44.50;;;;;;4988958;28;20051;-56
2022/09/22 12:57:28;;;;;;;1.40;0.80;;;19.20;44.60;;;;;;4994886;28;20050;-54
2022/09/22 13:00:07;;;;;;;2.50;1.05;;;19.20;44.80;;;;;;4993758;28;20058;-55
2022/09/22 13:02:42;;;;;;;1.25;0.60;;;19.20;44.30;;;;;;5001108;28;20788;-56
2022/09/22 13:05:41;;;;;;;1.60;1.02;;;19.30;44.00;;;;;;4995448;28;20062;-56
2022/09/22 13:08:18;;;;;;;1.83;1.00;;;19.30;43.90;;;;;;4984121;28;20050;-56
2022/09/22 13:11:00;;;;;;;2.60;1.08;;;19.30;44.20;;;;;;4992275;28;20051;-56
2022/09/22 13:13:39;;;;;;;2.08;0.90;;;19.30;43.90;;;;;;4995924;28;20058;-56
2022/09/22 13:16:33;;;;;;;0.80;0.80;;;19.30;43.90;;;;;;4993445;28;20130;-55
2022/09/22 13:19:00;;;;;;;1.58;0.88;;;19.30;43.70;;;;;;4987325;28;20431;-56
2022/09/22 13:21:30;;;;;;;1.58;0.80;;;19.30;43.90;;;;;;4997554;28;20057;-56
2022/09/22 13:23:58;;;;;;;4.45;0.90;;;19.30;44.00;;;;;;4997789;28;20058;-54
2022/09/22 13:26:28;;;;;;;1.30;0.82;;;19.30;43.90;;;;;;4996041;28;20510;-56
2022/09/22 13:29:10;;;;;;;1.45;0.90;;;19.30;44.30;;;;;;4996909;28;20068;-56
2022/09/22 13:31:44;;;;;;;2.08;0.98;;;19.30;43.70;;;;;;4993765;28;20065;-58
2022/09/22 13:34:24;;;;;;;2.47;1.30;;;19.30;43.70;;;;;;4998686;28;21459;-56
2022/09/22 13:36:54;;;;;;;2.28;0.75;;;19.30;43.50;;;;;;5000159;28;20496;-54